Time;durP1;ratioP1;P1;durP2;ratioP2;P2;SDS_P1;SDS_P2;PMS_P1;PMS_P2;Temp;Humidity;BMP_temperature;BMP_pressure;BME280_temperature;BME280_humidity;BME280_pressure;Samples;Min_cycle;Max_cycle;Signal;HPM_P1;HPM_P2
2021/11/20 00:01:44;;;;;;;16.47;5.97;;;;;;;11.70;91.77;102510.00;5031284;28;20202;-74
2021/11/20 00:04:10;;;;;;;22.87;5.97;;;;;;;11.67;91.48;102507.28;5030154;28;20520;-73
2021/11/20 00:06:45;;;;;;;17.80;6.37;;;;;;;11.70;91.59;102510.84;5025060;28;20310;-74
2021/11/20 00:09:14;;;;;;;20.83;5.47;;;;;;;11.70;91.51;102510.84;5011272;28;20187;-74
2021/11/20 00:11:41;;;;;;;14.57;5.07;;;;;;;11.70;91.58;102505.72;5011089;28;20205;-74
2021/11/20 00:14:10;;;;;;;17.83;4.77;;;;;;;11.69;91.74;102510.78;5012375;28;20187;-75
2021/11/20 00:16:37;;;;;;;18.23;5.30;;;;;;;11.67;92.00;102507.28;5011216;28;20198;-74
2021/11/20 00:19:03;;;;;;;16.33;4.57;;;;;;;11.68;91.73;102511.59;5025074;28;20214;-74
2021/11/20 00:21:42;;;;;;;16.97;5.03;;;;;;;11.67;91.64;102510.75;5030755;28;20185;-74
2021/11/20 00:24:19;;;;;;;20.50;6.40;;;;;;;11.66;91.94;102521.78;5029039;28;20201;-73
2021/11/20 00:26:45;;;;;;;14.80;5.17;;;;;;;11.64;92.10;102517.41;5030714;28;20268;-75
2021/11/20 00:29:19;;;;;;;12.30;4.50;;;;;;;11.64;92.13;102518.31;5028679;28;20190;-75
2021/11/20 00:31:58;;;;;;;12.20;4.20;;;;;;;11.61;91.75;102507.91;5030661;28;20206;-74
2021/11/20 00:34:31;;;;;;;13.90;4.90;;;;;;;11.61;91.96;102510.47;5029310;28;20197;-74
2021/11/20 00:36:57;;;;;;;14.50;4.60;;;;;;;11.60;91.98;102495.00;5030634;28;20186;-73
2021/11/20 00:39:26;;;;;;;12.90;4.90;;;;;;;11.57;92.55;102495.72;5030260;28;20249;-73
2021/11/20 00:41:53;;;;;;;17.43;4.43;;;;;;;11.54;92.49;102487.03;5017774;28;20238;-74
2021/11/20 00:44:19;;;;;;;16.67;5.07;;;;;;;11.54;92.01;102492.16;5009639;28;20199;-74
2021/11/20 00:46:48;;;;;;;14.83;5.40;;;;;;;11.54;92.57;102485.34;4993229;28;20214;-75
2021/11/20 00:49:14;;;;;;;13.07;4.63;;;;;;;11.54;92.22;102487.91;4992859;28;20194;-74
2021/11/20 00:51:40;;;;;;;15.40;4.73;;;;;;;11.53;92.71;102487.84;5026026;28;20672;-74
2021/11/20 00:54:06;;;;;;;14.63;5.37;;;;;;;11.52;92.60;102484.38;5010978;28;20187;-75
2021/11/20 00:56:33;;;;;;;14.60;5.03;;;;;;;11.49;92.74;102484.28;5011014;28;20179;-74
2021/11/20 00:59:00;;;;;;;14.30;5.40;;;;;;;11.49;92.87;102486.84;5009162;28;20248;-73
2021/11/20 01:01:30;;;;;;;15.43;4.80;;;;;;;11.50;92.87;102488.59;5010467;28;20187;-73
2021/11/20 01:03:55;;;;;;;10.93;4.80;;;;;;;11.49;92.75;102483.38;5008967;28;20195;-72
2021/11/20 01:06:21;;;;;;;17.00;4.87;;;;;;;11.48;92.46;102487.63;5009367;28;20194;-75
2021/11/20 01:08:49;;;;;;;14.57;5.43;;;;;;;11.47;92.88;102483.31;5012309;28;20235;-74
2021/11/20 01:11:39;;;;;;;10.90;4.90;;;;;;;11.46;92.64;102489.28;5028712;28;20190;-75
2021/11/20 01:14:09;;;;;;;12.30;4.77;;;;;;;11.44;93.00;102490.03;5030149;28;20190;-73
2021/11/20 01:16:35;;;;;;;11.50;4.67;;;;;;;11.46;92.68;102488.38;5012196;28;20205;-74
2021/11/20 01:19:04;;;;;;;13.67;5.13;;;;;;;11.45;92.56;102490.09;5030037;28;20332;-74
2021/11/20 01:21:51;;;;;;;11.10;5.30;;;;;;;11.46;92.58;102494.41;5030072;28;20267;-74
2021/11/20 01:24:17;;;;;;;11.13;5.07;;;;;;;11.47;92.53;102490.16;5024708;28;20183;-74
2021/11/20 01:26:44;;;;;;;13.30;5.83;;;;;;;11.45;92.11;102495.22;5008813;28;20196;-74
2021/11/20 01:29:11;;;;;;;12.87;5.40;;;;;;;11.45;92.61;102487.53;5008609;28;20186;-73
2021/11/20 01:31:44;;;;;;;16.13;5.27;;;;;;;11.45;92.27;102490.09;5009141;28;20274;-74
2021/11/20 01:34:10;;;;;;;11.10;4.97;;;;;;;11.45;92.38;102479.84;5009007;28;20186;-74
2021/11/20 01:36:40;;;;;;;8.90;4.73;;;;;;;11.46;92.06;102475.56;5010070;28;20210;-74
2021/11/20 01:39:10;;;;;;;14.03;5.00;;;;;;;11.46;92.02;102479.00;5008547;28;20250;-74
2021/11/20 01:41:44;;;;;;;9.50;4.90;;;;;;;11.47;91.90;102485.03;5009110;28;20217;-74
2021/11/20 01:44:22;;;;;;;11.47;4.93;;;;;;;11.45;91.90;102482.41;5011360;28;20209;-74
2021/11/20 01:46:54;;;;;;;11.83;5.00;;;;;;;11.45;92.10;102478.94;5010220;28;20179;-73
2021/11/20 01:49:42;;;;;;;8.87;4.07;;;;;;;11.46;91.74;102478.13;5008803;28;20186;-73
2021/11/20 01:52:34;;;;;;;9.73;4.17;;;;;;;11.45;91.81;102467.00;5020514;28;20206;-74
2021/11/20 01:55:10;;;;;;;13.60;4.50;;;;;;;11.46;91.60;102473.00;5028393;28;20233;-74
2021/11/20 01:57:54;;;;;;;10.50;3.77;;;;;;;11.46;91.55;102471.31;5028314;28;20681;-72
2021/11/20 02:00:46;;;;;;;9.37;3.77;;;;;;;11.46;91.50;102478.13;5028472;28;20783;-74
2021/11/20 02:03:34;;;;;;;10.77;4.10;;;;;;;11.46;91.33;102480.69;5028234;28;20210;-74
2021/11/20 02:06:27;;;;;;;9.23;3.93;;;;;;;11.46;91.10;102471.31;5012141;28;20236;-72
2021/11/20 02:09:05;;;;;;;7.83;3.80;;;;;;;11.49;91.13;102470.56;5009195;28;20194;-74
2021/11/20 02:11:48;;;;;;;13.37;5.00;;;;;;;11.49;91.29;102471.44;5009079;28;20191;-71
2021/11/20 02:14:17;;;;;;;9.90;4.77;;;;;;;11.48;91.10;102467.09;5018546;28;20201;-73
2021/11/20 02:17:07;;;;;;;10.40;4.10;;;;;;;11.49;91.29;102468.88;5021231;28;20781;-75
2021/11/20 02:19:43;;;;;;;8.60;4.27;;;;;;;11.46;91.39;102466.19;5007670;28;20229;-73
2021/11/20 02:22:22;;;;;;;12.50;4.73;;;;;;;11.46;91.63;102465.28;5023282;28;20293;-74
2021/11/20 02:24:48;;;;;;;5.83;4.60;;;;;;;11.45;91.83;102468.69;5024412;28;20175;-74
2021/11/20 02:27:35;;;;;;;12.27;5.40;;;;;;;11.44;91.96;102464.38;5011063;28;20230;-74
2021/11/20 02:30:13;;;;;;;9.30;5.70;;;;;;;11.45;91.98;102461.88;5011858;28;20187;-75
2021/11/20 02:32:40;;;;;;;11.63;5.33;;;;;;;11.44;92.03;102462.69;5011862;28;20241;-75
2021/11/20 02:35:29;;;;;;;13.87;5.40;;;;;;;11.42;91.79;102450.59;5011984;28;20199;-75
2021/11/20 02:37:57;;;;;;;11.63;5.67;;;;;;;11.42;92.28;102459.16;5011468;28;20180;-74
2021/11/20 02:40:24;;;;;;;13.00;5.70;;;;;;;11.39;92.07;102459.03;5011654;28;20204;-75
2021/11/20 02:42:50;;;;;;;13.93;5.93;;;;;;;11.41;92.51;102459.09;5012745;28;20199;-75
2021/11/20 02:45:31;;;;;;;14.93;6.13;;;;;;;11.42;91.93;102453.16;5011726;28;20627;-75
2021/11/20 02:47:59;;;;;;;13.63;5.97;;;;;;;11.40;92.19;102462.47;5012709;28;20307;-74
2021/11/20 02:50:39;;;;;;;10.63;5.90;;;;;;;11.38;92.25;102457.28;5011331;28;20186;-75
2021/11/20 02:53:07;;;;;;;10.03;5.73;;;;;;;11.40;92.31;102457.34;5013318;28;20238;-74
2021/11/20 02:55:34;;;;;;;15.93;6.57;;;;;;;11.37;92.40;102452.97;5011465;28;20209;-75
2021/11/20 02:58:00;;;;;;;13.13;6.17;;;;;;;11.35;92.18;102453.72;5011374;28;20293;-75
2021/11/20 03:00:27;;;;;;;14.53;7.87;;;;;;;11.36;92.07;102453.78;5011349;28;20215;-75
2021/11/20 03:02:53;;;;;;;12.87;6.83;;;;;;;11.37;92.10;102447.84;5012368;28;20293;-75
2021/11/20 03:05:20;;;;;;;17.47;6.77;;;;;;;11.39;92.09;102459.03;5011278;28;20187;-76
2021/11/20 03:07:46;;;;;;;12.93;6.77;;;;;;;11.40;92.05;102458.25;5011393;28;20179;-75
2021/11/20 03:10:12;;;;;;;15.27;7.20;;;;;;;11.36;92.20;102451.22;5010986;28;20191;-75
2021/11/20 03:12:38;;;;;;;16.33;7.20;;;;;;;11.35;92.28;102446.03;5011190;28;20284;-74
2021/11/20 03:15:06;;;;;;;13.43;6.93;;;;;;;11.34;92.40;102449.41;5014338;28;20190;-75
2021/11/20 03:17:40;;;;;;;16.17;7.33;;;;;;;11.35;92.10;102444.34;5031744;28;20561;-75
2021/11/20 03:20:11;;;;;;;15.20;7.43;;;;;;;11.33;92.16;102435.69;5030677;28;20324;-74
2021/11/20 03:22:59;;;;;;;15.80;7.50;;;;;;;11.32;92.43;102433.06;5014220;28;20214;-75
2021/11/20 03:25:26;;;;;;;14.53;7.53;;;;;;;11.29;92.37;102433.81;5032109;28;20693;-75
2021/11/20 03:27:54;;;;;;;14.57;7.13;;;;;;;11.31;92.44;102433.88;5019279;28;20718;-74
2021/11/20 03:30:20;;;;;;;12.37;6.93;;;;;;;11.31;92.61;102433.88;5010889;28;20167;-76
2021/11/20 03:32:46;;;;;;;13.57;7.50;;;;;;;11.32;92.28;102430.50;5010729;28;20211;-75
2021/11/20 03:35:18;;;;;;;10.47;6.60;;;;;;;11.31;92.18;102424.53;5010801;28;20183;-76
2021/11/20 03:37:46;;;;;;;11.97;6.50;;;;;;;11.31;91.87;102421.06;5010549;28;20198;-73
2021/11/20 03:40:14;;;;;;;12.03;6.00;;;;;;;11.31;92.03;102421.06;5017200;28;20579;-75
2021/11/20 03:42:40;;;;;;;15.27;6.60;;;;;;;11.31;91.73;102423.63;5010857;28;20692;-75
2021/11/20 03:45:08;;;;;;;15.63;6.23;;;;;;;11.31;91.84;102421.97;5030251;28;20218;-75
2021/11/20 03:47:34;;;;;;;11.40;5.40;;;;;;;11.32;91.61;102416.00;5030039;28;20718;-75
2021/11/20 03:49:59;;;;;;;14.83;5.77;;;;;;;11.32;91.34;102421.13;5029934;28;20332;-75
2021/11/20 03:52:27;;;;;;;12.70;5.13;;;;;;;11.33;91.51;102428.00;5017214;28;20207;-76
2021/11/20 03:54:53;;;;;;;13.57;6.00;;;;;;;11.34;91.38;102416.94;5011665;28;20696;-76
2021/11/20 03:57:20;;;;;;;11.70;4.70;;;;;;;11.34;90.92;102424.63;5011637;28;20191;-76
2021/11/20 03:59:47;;;;;;;12.87;5.87;;;;;;;11.35;90.83;102417.81;4993488;28;20357;-75
2021/11/20 04:02:14;;;;;;;16.37;5.87;;;;;;;11.37;90.31;102423.88;5013357;28;20293;-76
2021/11/20 04:04:40;;;;;;;12.63;5.47;;;;;;;11.40;90.50;102429.13;5010200;28;20330;-75
2021/11/20 04:07:07;;;;;;;12.43;5.63;;;;;;;11.40;90.13;102435.16;5010023;28;20183;-74
2021/11/20 04:09:33;;;;;;;15.77;5.67;;;;;;;11.39;90.20;102425.69;5009785;28;20206;-76
2021/11/20 04:12:06;;;;;;;15.50;5.93;;;;;;;11.39;90.16;102427.41;5009843;28;20293;-74
2021/11/20 04:14:32;;;;;;;13.73;5.10;;;;;;;11.39;90.52;102433.38;5020109;28;20561;-76
2021/11/20 04:16:57;;;;;;;10.23;6.00;;;;;;;11.40;90.19;102422.34;5011410;28;20190;-75
2021/11/20 04:19:24;;;;;;;15.10;5.87;;;;;;;11.41;90.21;102423.19;5009591;28;20218;-74
2021/11/20 04:21:52;;;;;;;15.83;6.47;;;;;;;11.41;90.17;102412.94;5010098;28;20210;-75
2021/11/20 04:24:19;;;;;;;18.03;7.03;;;;;;;11.39;90.27;102417.13;5016691;28;20210;-74
2021/11/20 04:27:04;;;;;;;16.83;7.30;;;;;;;11.41;90.22;102413.81;5029318;28;20367;-76
2021/11/20 04:29:57;;;;;;;15.60;7.13;;;;;;;11.39;89.87;102420.56;5029726;28;20206;-75
2021/11/20 04:32:24;;;;;;;14.57;6.97;;;;;;;11.38;90.16;102413.69;5013517;28;20213;-76
2021/11/20 04:34:50;;;;;;;17.53;7.37;;;;;;;11.37;90.42;102404.25;5013291;28;20186;-76
2021/11/20 04:37:15;;;;;;;15.90;7.07;;;;;;;11.37;90.15;102390.53;5012909;28;20187;-75
2021/11/20 04:39:41;;;;;;;14.90;6.60;;;;;;;11.34;90.12;102391.28;5009282;28;20688;-76
2021/11/20 04:42:06;;;;;;;17.17;6.67;;;;;;;11.36;89.75;102386.22;5009458;28;20246;-74
2021/11/20 04:44:32;;;;;;;17.97;7.20;;;;;;;11.34;90.15;102391.28;5009499;28;20191;-76
2021/11/20 04:46:58;;;;;;;19.47;7.47;;;;;;;11.31;89.92;102382.59;5009486;28;20532;-76
2021/11/20 04:49:23;;;;;;;22.90;8.13;;;;;;;11.31;89.93;102387.72;5009332;28;20242;-74
2021/11/20 04:51:49;;;;;;;20.63;8.00;;;;;;;11.30;89.88;102385.97;5008313;28;20210;-74
2021/11/20 04:54:15;;;;;;;15.90;8.33;;;;;;;11.32;89.93;102386.91;5009286;28;20183;-75
2021/11/20 04:56:41;;;;;;;19.67;7.83;;;;;;;11.30;89.84;102388.53;5009493;28;20282;-76
2021/11/20 04:59:07;;;;;;;19.07;8.27;;;;;;;11.26;89.95;102391.78;5008826;28;20203;-75
2021/11/20 05:01:32;;;;;;;16.77;7.37;;;;;;;11.27;89.86;102385.84;5012228;28;20202;-75
2021/11/20 05:04:00;;;;;;;24.43;8.77;;;;;;;11.29;90.09;102385.09;5030152;28;20659;-75
2021/11/20 05:06:27;;;;;;;20.30;8.20;;;;;;;11.27;90.27;102380.72;5028598;28;20185;-76
2021/11/20 05:08:59;;;;;;;18.43;8.07;;;;;;;11.28;90.48;102383.34;5028496;28;20182;-75
2021/11/20 05:11:27;;;;;;;16.00;7.50;;;;;;;11.29;90.13;102386.81;5021722;28;20198;-74
2021/11/20 05:13:54;;;;;;;15.33;8.17;;;;;;;11.28;90.51;102383.34;4992820;28;20210;-75
2021/11/20 05:16:20;;;;;;;21.93;9.17;;;;;;;11.29;90.29;102387.66;5008974;28;20222;-75
2021/11/20 05:18:46;;;;;;;17.90;8.50;;;;;;;11.30;90.56;102385.97;5008718;28;20193;-75
2021/11/20 05:21:18;;;;;;;18.17;8.93;;;;;;;11.29;90.39;102387.66;5008745;28;20614;-73
2021/11/20 05:23:46;;;;;;;19.80;9.00;;;;;;;11.29;90.37;102376.53;5009672;28;20560;-73
2021/11/20 05:26:13;;;;;;;22.93;9.40;;;;;;;11.29;90.40;102382.53;5020691;28;20197;-74
2021/11/20 05:28:50;;;;;;;17.53;9.97;;;;;;;11.30;90.38;102384.28;5008672;28;20194;-76
2021/11/20 05:31:17;;;;;;;20.10;9.47;;;;;;;11.29;90.49;102379.09;5010114;28;20615;-75
2021/11/20 05:33:45;;;;;;;21.83;9.23;;;;;;;11.29;90.45;102372.28;5008824;28;20684;-75
2021/11/20 05:36:14;;;;;;;22.63;10.43;;;;;;;11.30;90.66;102371.44;5009002;28;20335;-75
2021/11/20 05:38:41;;;;;;;18.67;9.27;;;;;;;11.29;90.53;102369.72;4992466;28;20197;-76
2021/11/20 05:41:07;;;;;;;15.77;9.43;;;;;;;11.29;90.36;102362.00;5009144;28;20219;-75
2021/11/20 05:43:52;;;;;;;24.57;10.50;;;;;;;11.30;90.34;102362.91;5020434;28;20191;-75
2021/11/20 05:46:29;;;;;;;27.00;10.57;;;;;;;11.30;90.39;102357.78;5009099;28;20194;-75
2021/11/20 05:48:56;;;;;;;22.00;10.17;;;;;;;11.30;90.62;102350.94;4992569;28;20552;-75
2021/11/20 05:51:22;;;;;;;22.37;10.57;;;;;;;11.29;90.55;102350.91;5010222;28;20186;-74
2021/11/20 05:53:48;;;;;;;25.57;11.27;;;;;;;11.28;90.42;102339.75;5008670;28;20217;-74
2021/11/20 05:56:17;;;;;;;19.60;11.60;;;;;;;11.26;90.52;102337.94;5008839;28;20182;-75
2021/11/20 05:58:45;;;;;;;24.90;11.97;;;;;;;11.25;90.71;102343.91;4992535;28;20202;-75
2021/11/20 06:01:14;;;;;;;21.73;13.13;;;;;;;11.26;90.25;102336.28;5008668;28;20187;-73
2021/11/20 06:03:42;;;;;;;21.87;11.63;;;;;;;11.27;90.26;102339.69;5012475;28;20301;-74
2021/11/20 06:06:08;;;;;;;25.37;12.23;;;;;;;11.28;89.97;102344.00;5012480;28;20265;-75
2021/11/20 06:08:35;;;;;;;23.23;12.03;;;;;;;11.26;90.18;102337.94;5012197;28;20198;-75
2021/11/20 06:11:04;;;;;;;24.67;13.37;;;;;;;11.25;90.38;102325.94;5012328;28;20187;-76
2021/11/20 06:13:32;;;;;;;28.43;14.50;;;;;;;11.23;90.17;102331.00;5012226;28;20215;-76
2021/11/20 06:16:05;;;;;;;24.70;12.57;;;;;;;11.24;90.04;102329.34;5012471;28;20179;-75
2021/11/20 06:18:31;;;;;;;29.23;13.40;;;;;;;11.22;90.56;102334.38;5012183;28;20735;-74
2021/11/20 06:20:58;;;;;;;22.13;14.47;;;;;;;11.24;89.83;102334.47;5012282;28;20238;-75
2021/11/20 06:23:27;;;;;;;27.60;14.20;;;;;;;11.25;90.05;102338.75;5012093;28;20235;-76
2021/11/20 06:25:57;;;;;;;28.43;14.33;;;;;;;11.23;90.11;102345.50;5012196;28;20186;-76
2021/11/20 06:28:24;;;;;;;24.10;14.80;;;;;;;11.23;90.09;102346.38;5011991;28;20249;-75
2021/11/20 06:30:50;;;;;;;21.87;13.43;;;;;;;11.25;90.10;102351.59;5012174;28;20666;-75
2021/11/20 06:33:16;;;;;;;21.97;14.07;;;;;;;11.22;90.06;102344.66;5012382;28;20643;-74
2021/11/20 06:35:56;;;;;;;23.67;14.27;;;;;;;11.22;89.94;102344.66;5011893;28;20614;-74
2021/11/20 06:38:28;;;;;;;24.63;15.13;;;;;;;11.22;90.21;102354.91;5011779;28;20197;-75
2021/11/20 06:40:55;;;;;;;22.00;14.73;;;;;;;11.24;89.92;102349.84;5012083;28;20219;-75
2021/11/20 06:43:24;;;;;;;23.53;14.40;;;;;;;11.23;89.88;102353.19;5012278;28;20584;-74
2021/11/20 06:45:55;;;;;;;24.47;14.87;;;;;;;11.24;89.59;102352.41;5011802;28;20215;-75
2021/11/20 06:48:22;;;;;;;23.97;14.07;;;;;;;11.23;89.98;102354.09;5011470;28;20214;-73
2021/11/20 06:51:00;;;;;;;22.70;13.37;;;;;;;11.23;89.59;102356.66;5011876;28;20269;-75
2021/11/20 06:53:36;;;;;;;19.20;13.23;;;;;;;11.24;89.54;102360.09;5013459;28;20261;-73
2021/11/20 06:56:43;;;;;;;21.67;13.63;;;;;;;11.25;89.71;102354.16;5012729;28;20191;-75
2021/11/20 07:02:44;;;;;;;21.20;13.30;;;;;;;11.24;89.42;102352.41;5012509;28;20696;-75
2021/11/20 07:05:12;;;;;;;21.23;14.10;;;;;;;11.25;89.36;102356.72;5011392;28;20183;-75
2021/11/20 07:07:37;;;;;;;19.47;14.00;;;;;;;11.26;89.22;102355.91;5012908;28;20192;-75
2021/11/20 07:10:05;;;;;;;17.10;12.93;;;;;;;11.22;89.48;102354.91;5031143;28;20558;-75
2021/11/20 07:12:31;;;;;;;19.90;14.23;;;;;;;11.22;89.42;102348.88;5032367;28;20635;-75
2021/11/20 07:14:56;;;;;;;21.40;14.10;;;;;;;11.23;89.64;102348.06;5030168;28;20190;-75
2021/11/20 07:17:22;;;;;;;20.63;14.47;;;;;;;11.23;89.56;102355.75;5030960;28;20685;-75
2021/11/20 07:20:05;;;;;;;20.60;14.57;;;;;;;11.23;89.37;102353.19;5030629;28;20861;-75
2021/11/20 07:22:49;;;;;;;26.00;14.37;;;;;;;11.25;89.00;102354.16;5030497;28;20304;-75
2021/11/20 07:25:18;;;;;;;24.67;14.83;;;;;;;11.23;89.17;102353.19;5030685;28;20547;-74
2021/11/20 07:27:44;;;;;;;24.37;15.80;;;;;;;11.23;89.13;102348.94;5030640;28;20183;-74
2021/11/20 07:30:11;;;;;;;22.20;14.83;;;;;;;11.23;89.29;102343.81;5030248;28;20183;-75
2021/11/20 07:32:46;;;;;;;22.60;14.40;;;;;;;11.24;88.98;102334.47;5014969;28;20229;-76
2021/11/20 07:35:20;;;;;;;18.40;14.37;;;;;;;11.25;89.20;102333.63;5030379;28;20193;-74
2021/11/20 07:37:46;;;;;;;24.97;15.73;;;;;;;11.25;88.90;102325.94;5010614;28;20193;-73
2021/11/20 07:40:12;;;;;;;22.97;13.87;;;;;;;11.27;89.19;102324.31;5010668;28;20215;-74
2021/11/20 07:42:38;;;;;;;21.73;14.33;;;;;;;11.27;89.08;102334.56;5026876;28;20326;-74
2021/11/20 07:45:22;;;;;;;23.03;13.73;;;;;;;11.28;88.71;102333.75;5032064;28;20724;-74
2021/11/20 07:48:14;;;;;;;22.47;14.30;;;;;;;11.29;88.79;102336.38;5028369;28;20183;-73
2021/11/20 07:50:44;;;;;;;19.57;12.90;;;;;;;11.30;88.80;102327.00;5030282;28;20192;-73
2021/11/20 07:53:23;;;;;;;18.17;12.70;;;;;;;11.30;88.63;102321.88;5023289;28;20206;-74
2021/11/20 07:55:49;;;;;;;20.47;13.90;;;;;;;11.28;88.53;102329.50;5010372;28;20237;-74
2021/11/20 07:58:16;;;;;;;20.30;12.83;;;;;;;11.29;88.47;102331.25;5010316;28;20178;-74
2021/11/20 08:00:43;;;;;;;21.60;13.13;;;;;;;11.32;88.24;102323.69;5010592;28;20281;-74
2021/11/20 08:03:12;;;;;;;18.80;13.07;;;;;;;11.34;88.20;102316.06;5011630;28;20722;-73
2021/11/20 08:05:49;;;;;;;20.80;13.07;;;;;;;11.33;88.34;102320.28;5013601;28;20182;-72
2021/11/20 08:08:34;;;;;;;23.20;12.83;;;;;;;11.35;88.22;102321.25;5031216;28;20248;-74
2021/11/20 08:11:16;;;;;;;22.73;13.60;;;;;;;11.38;88.18;102323.06;5029826;28;20216;-73
2021/11/20 08:13:43;;;;;;;18.23;12.40;;;;;;;11.37;87.69;102316.16;5029619;28;20617;-74
2021/11/20 08:16:34;;;;;;;20.93;13.00;;;;;;;11.39;87.52;102310.28;5014331;28;20199;-74
2021/11/20 08:19:16;;;;;;;19.00;12.47;;;;;;;11.41;87.86;102302.66;5011065;28;20649;-72
2021/11/20 08:21:52;;;;;;;22.07;13.33;;;;;;;11.42;87.55;102309.53;5009810;28;20210;-73
2021/11/20 08:24:20;;;;;;;20.00;12.33;;;;;;;11.44;87.29;102311.34;5009925;28;20278;-74
2021/11/20 08:26:46;;;;;;;18.30;13.20;;;;;;;11.44;87.30;102295.97;5008808;28;20190;-72
2021/11/20 08:29:18;;;;;;;17.60;11.90;;;;;;;11.47;86.88;102296.06;5012529;28;20174;-74
2021/11/20 08:31:47;;;;;;;16.20;12.07;;;;;;;11.45;87.15;102287.44;5029364;28;20186;-74
2021/11/20 08:34:42;;;;;;;16.87;11.67;;;;;;;11.48;86.85;102290.13;5030327;28;20679;-74
2021/11/20 08:37:30;;;;;;;18.50;11.67;;;;;;;11.48;86.99;102286.69;5018874;28;20203;-74
2021/11/20 08:40:06;;;;;;;16.77;12.20;;;;;;;11.51;86.73;102272.28;5024050;28;20211;-75
2021/11/20 08:42:33;;;;;;;17.03;11.67;;;;;;;11.52;86.54;102281.72;5006561;28;20279;-75
2021/11/20 08:44:59;;;;;;;18.33;12.60;;;;;;;11.54;86.54;102276.66;5009408;28;20198;-74
2021/11/20 08:47:34;;;;;;;18.63;12.00;;;;;;;11.53;86.69;102268.06;4986576;28;20853;-75
2021/11/20 08:50:01;;;;;;;18.47;12.90;;;;;;;11.55;86.28;102276.72;5021749;28;20194;-74
2021/11/20 08:52:28;;;;;;;18.17;12.50;;;;;;;11.54;86.73;102274.97;5026345;28;20252;-75
2021/11/20 08:54:56;;;;;;;21.20;14.23;;;;;;;11.55;86.52;102269.03;5025664;28;20728;-75
2021/11/20 08:57:26;;;;;;;23.40;14.47;;;;;;;11.55;86.48;102270.72;5028613;28;20597;-76
2021/11/20 08:59:59;;;;;;;18.83;13.77;;;;;;;11.54;86.54;102268.97;5028298;28;20301;-75
2021/11/20 09:02:57;;;;;;;20.40;13.93;;;;;;;11.58;86.41;102273.41;5010331;28;20289;-74
2021/11/20 09:05:49;;;;;;;26.27;13.60;;;;;;;11.57;86.42;102262.25;5025809;28;20182;-74
2021/11/20 09:08:23;;;;;;;22.23;14.53;;;;;;;11.57;86.43;102269.94;5021400;28;20935;-75
2021/11/20 09:11:13;;;;;;;17.97;14.07;;;;;;;11.62;86.27;102262.47;5011853;28;20171;-74
2021/11/20 09:13:43;;;;;;;15.43;13.60;;;;;;;11.63;85.93;102257.41;5012445;28;20276;-76
2021/11/20 09:16:14;;;;;;;16.97;12.87;;;;;;;11.63;85.82;102265.09;5029044;28;20562;-76
2021/11/20 09:18:41;;;;;;;19.77;13.67;;;;;;;11.62;85.96;102265.91;5028602;28;20241;-76
2021/11/20 09:21:10;;;;;;;22.87;14.57;;;;;;;11.62;85.90;102265.03;5029140;28;20567;-75
2021/11/20 09:23:57;;;;;;;17.93;13.13;;;;;;;11.66;85.71;102260.06;5027472;28;20194;-74
2021/11/20 09:26:46;;;;;;;18.17;12.30;;;;;;;11.69;85.59;102267.91;5021696;28;20198;-74
2021/11/20 09:29:15;;;;;;;16.90;12.77;;;;;;;11.70;85.18;102274.75;5027768;28;20777;-74
2021/11/20 09:31:44;;;;;;;15.70;12.37;;;;;;;11.73;84.92;102263.75;5011235;28;20182;-74
2021/11/20 09:34:10;;;;;;;14.87;11.30;;;;;;;11.79;84.45;102253.69;5024847;28;20666;-75
2021/11/20 09:36:36;;;;;;;15.87;12.07;;;;;;;11.84;84.42;102252.19;5008154;28;20191;-74
2021/11/20 09:39:16;;;;;;;15.33;12.10;;;;;;;11.90;84.11;102255.84;5008245;28;20210;-77
2021/11/20 09:42:13;;;;;;;13.57;10.50;;;;;;;11.91;84.05;102249.91;5013618;28;20273;-77
2021/11/20 09:44:49;;;;;;;15.03;9.80;;;;;;;11.93;83.60;102260.25;5012656;28;20222;-77
2021/11/20 09:47:28;;;;;;;10.50;9.40;;;;;;;12.00;83.22;102254.50;5022397;28;20655;-76
2021/11/20 09:49:58;;;;;;;14.80;10.30;;;;;;;12.07;83.33;102259.91;5026799;28;20261;-76
2021/11/20 09:52:24;;;;;;;11.57;9.57;;;;;;;12.08;82.92;102258.22;5027385;28;20686;-76
2021/11/20 09:54:53;;;;;;;17.10;9.53;;;;;;;12.13;82.98;102254.13;5026337;28;20212;-76
2021/11/20 09:57:35;;;;;;;13.00;9.50;;;;;;;12.21;82.46;102251.00;5026564;28;20265;-75
2021/11/20 10:00:03;;;;;;;13.40;8.80;;;;;;;12.23;82.42;102235.63;5026605;28;20285;-76
2021/11/20 10:02:53;;;;;;;10.37;7.70;;;;;;;12.24;81.51;102229.69;5018224;28;20214;-76
2021/11/20 10:05:21;;;;;;;12.00;8.17;;;;;;;12.30;81.58;102233.34;5012367;28;20259;-75
2021/11/20 10:08:03;;;;;;;10.67;7.33;;;;;;;12.30;81.17;102220.50;5028836;28;20186;-75
2021/11/20 10:10:35;;;;;;;12.80;7.50;;;;;;;12.30;81.52;102217.91;5027236;28;20186;-75
2021/11/20 10:13:03;;;;;;;10.67;7.30;;;;;;;12.33;81.40;102224.84;5028980;28;20759;-75
2021/11/20 10:15:36;;;;;;;11.90;7.63;;;;;;;12.34;80.76;102221.47;5029116;28;20242;-74
2021/11/20 10:18:12;;;;;;;8.57;7.00;;;;;;;12.45;81.64;102220.16;5026567;28;20600;-70
2021/11/20 10:20:48;;;;;;;9.83;7.43;;;;;;;12.48;80.82;102209.97;5009278;28;20309;-69
2021/11/20 10:23:28;;;;;;;9.33;6.83;;;;;;;12.48;80.57;102207.38;5009053;28;20214;-76
2021/11/20 10:26:15;;;;;;;10.97;7.30;;;;;;;12.50;80.67;102210.91;5012083;28;20270;-75
2021/11/20 10:28:46;;;;;;;8.37;6.67;;;;;;;12.48;80.27;102205.69;5019877;28;20660;-70
2021/11/20 10:31:49;;;;;;;11.37;7.60;;;;;;;12.46;80.47;102194.53;5016444;28;20210;-73
2021/11/20 10:34:26;;;;;;;10.07;7.70;;;;;;;12.44;80.12;102193.56;5023162;28;20186;-72
2021/11/20 10:37:14;;;;;;;9.27;7.33;;;;;;;12.43;80.41;102196.09;5020252;28;20188;-73
2021/11/20 10:39:46;;;;;;;11.50;7.43;;;;;;;12.43;80.52;102196.09;5007966;28;20226;-72
2021/11/20 10:42:19;;;;;;;9.67;7.90;;;;;;;12.36;80.12;102189.88;5018011;28;20198;-72
2021/11/20 10:44:55;;;;;;;9.67;7.27;;;;;;;12.37;80.53;102185.63;5016415;28;20241;-72
2021/11/20 10:47:26;;;;;;;11.83;7.67;;;;;;;12.38;80.34;102192.50;5009125;28;20262;-72
2021/11/20 10:49:59;;;;;;;8.40;7.43;;;;;;;12.40;80.36;102183.16;5012914;28;20261;-72
2021/11/20 10:52:52;;;;;;;8.33;6.30;;;;;;;12.34;80.60;102181.25;5029971;28;20264;-73
2021/11/20 10:55:36;;;;;;;8.67;6.63;;;;;;;12.32;79.51;102176.88;5034086;28;20183;-71
2021/11/20 10:58:20;;;;;;;10.63;7.13;;;;;;;12.26;80.03;102177.53;5023861;28;20239;-70
2021/11/20 11:01:12;;;;;;;10.33;7.40;;;;;;;12.28;80.28;102172.47;5018821;28;20206;-72
2021/11/20 11:03:55;;;;;;;9.60;7.00;;;;;;;12.25;80.56;102174.91;5019516;28;20301;-72
2021/11/20 11:06:51;;;;;;;11.40;7.27;;;;;;;12.23;80.21;102171.44;5026825;28;20195;-71
2021/11/20 11:09:18;;;;;;;9.13;7.17;;;;;;;12.15;79.85;102166.03;5010749;28;20190;-72
2021/11/20 11:11:55;;;;;;;10.23;8.10;;;;;;;12.17;80.64;102156.69;5012086;28;20262;-71
2021/11/20 11:14:39;;;;;;;11.37;8.60;;;;;;;12.10;80.49;102149.63;5011922;28;20656;-71
2021/11/20 11:17:41;;;;;;;11.83;8.97;;;;;;;12.09;80.52;102146.97;5012228;28;20563;-71
2021/11/20 11:20:21;;;;;;;12.20;8.80;;;;;;;12.03;80.67;102139.94;5011677;28;20241;-72
2021/11/20 11:22:56;;;;;;;10.77;8.83;;;;;;;12.02;80.16;102132.19;5011962;28;20198;-71
2021/11/20 11:25:22;;;;;;;11.40;8.90;;;;;;;12.03;80.66;102126.25;5013088;28;20317;-70
2021/11/20 11:28:08;;;;;;;10.63;8.07;;;;;;;11.99;80.64;102120.09;5011922;28;20191;-72
2021/11/20 11:31:10;;;;;;;10.37;8.50;;;;;;;12.05;80.37;102114.31;5011976;28;20167;-72
2021/11/20 11:33:40;;;;;;;8.73;7.80;;;;;;;12.02;80.07;102109.06;5011877;28;20206;-71
2021/11/20 11:36:17;;;;;;;11.83;8.60;;;;;;;11.94;79.86;102118.22;5012043;28;20740;-71
2021/11/20 11:39:20;;;;;;;9.57;8.07;;;;;;;11.98;79.68;102109.81;5012864;28;20193;-69
2021/11/20 11:42:04;;;;;;;11.87;8.13;;;;;;;11.97;80.13;102097.78;5003707;28;20238;-71
2021/11/20 11:44:49;;;;;;;10.83;9.30;;;;;;;11.95;80.55;102095.19;5026352;28;20652;-71